Time;durP1;ratioP1;P1;durP2;ratioP2;P2;SDS_P1;SDS_P2;PMS_P1;PMS_P2;Temp;Humidity;BMP_temperature;BMP_pressure;BME280_temperature;BME280_humidity;BME280_pressure;Samples;Min_cycle;Max_cycle;Signal;HPM_P1;HPM_P2
2023/10/27 00:00:57;;;;;;;;;1.00;1.00;;;;;14.69;100.00;98782.59;4980477;28;45459;-68
2023/10/27 00:03:23;;;;;;;;;1.00;1.00;;;;;14.65;100.00;98774.91;4988484;28;45815;-70
2023/10/27 00:05:48;;;;;;;;;1.00;1.00;;;;;14.72;100.00;98774.56;4987105;28;45713;-69
2023/10/27 00:08:14;;;;;;;;;1.00;1.00;;;;;14.74;100.00;98774.28;4976707;28;45762;-69
2023/10/27 00:10:39;;;;;;;;;1.33;1.33;;;;;14.77;100.00;98784.75;4990874;28;45903;-69
2023/10/27 00:13:05;;;;;;;;;2.00;2.00;;;;;14.67;100.00;98779.28;4994001;28;46100;-69
2023/10/27 00:15:30;;;;;;;;;3.00;1.33;;;;;14.63;100.00;98785.38;4993664;28;45806;-68
2023/10/27 00:17:59;;;;;;;;;1.00;1.00;;;;;14.61;100.00;98784.84;4970152;28;45894;-70
2023/10/27 00:20:25;;;;;;;;;2.33;2.33;;;;;14.51;100.00;98792.31;4975004;28;46424;-68
2023/10/27 00:22:50;;;;;;;;;2.67;2.67;;;;;14.45;100.00;98786.00;4988558;28;45455;-71
2023/10/27 00:25:16;;;;;;;;;1.00;1.00;;;;;14.37;100.00;98781.06;4994068;28;45694;-72
2023/10/27 00:27:41;;;;;;;;;3.00;2.00;;;;;14.50;100.00;98796.19;4993337;28;45535;-71
2023/10/27 00:30:10;;;;;;;;;2.00;2.00;;;;;14.45;100.00;98794.28;4993541;28;45621;-72
2023/10/27 00:32:36;;;;;;;;;1.00;1.00;;;;;14.44;100.00;98789.84;4993667;28;46610;-72
2023/10/27 00:35:04;;;;;;;;;2.33;1.33;;;;;14.48;100.00;98793.72;4992938;28;45764;-72
2023/10/27 00:37:32;;;;;;;;;1.00;1.00;;;;;14.47;100.00;98801.13;4993663;28;45742;-70
2023/10/27 00:39:57;;;;;;;;;3.00;2.00;;;;;14.51;100.00;98811.63;4972321;28;45425;-69
2023/10/27 00:42:23;;;;;;;;;2.00;2.00;;;;;14.54;100.00;98803.59;4986063;28;45474;-70
2023/10/27 00:44:48;;;;;;;;;2.33;2.33;;;;;14.52;100.00;98808.59;4986374;28;45649;-69
2023/10/27 00:47:14;;;;;;;;;2.00;2.00;;;;;14.52;100.00;98808.59;4990965;28;45528;-70
2023/10/27 00:49:39;;;;;;;;;2.67;2.00;;;;;14.47;100.00;98805.84;4991519;28;45443;-69
2023/10/27 00:52:06;;;;;;;;;3.33;3.33;;;;;14.54;100.00;98806.38;4975438;28;47487;-69
2023/10/27 00:54:34;;;;;;;;;3.33;2.00;;;;;14.54;100.00;98813.81;4993402;28;45381;-68
2023/10/27 00:57:00;;;;;;;;;2.33;2.33;;;;;14.56;100.00;98817.94;4993383;28;45448;-69
2023/10/27 00:59:26;;;;;;;;;4.33;2.33;;;;;14.52;100.00;98822.38;4993478;28;45479;-72
2023/10/27 01:01:51;;;;;;;;;1.00;1.00;;;;;14.49;100.00;98809.16;4990897;28;45988;-68
2023/10/27 01:04:16;;;;;;;;;1.00;1.00;;;;;14.52;100.00;98813.25;4993312;28;45703;-69
2023/10/27 01:06:42;;;;;;;;;3.33;3.33;;;;;14.47;100.00;98805.84;4976163;28;45636;-69
2023/10/27 01:09:08;;;;;;;;;5.00;2.67;;;;;14.52;100.00;98816.88;4973012;28;45578;-69
2023/10/27 01:11:33;;;;;;;;;4.67;2.00;;;;;14.52;100.00;98822.38;4988973;28;45411;-69
2023/10/27 01:13:59;;;;;;;;;4.67;3.67;;;;;14.57;100.00;98822.34;4993507;28;45775;-69
2023/10/27 01:16:25;;;;;;;;;3.00;3.00;;;;;14.59;100.00;98825.63;4993214;28;45555;-69
2023/10/27 01:18:51;;;;;;;;;4.67;4.00;;;;;14.67;100.00;98831.72;4972082;28;45897;-73
2023/10/27 01:21:16;;;;;;;;;5.00;4.00;;;;;14.65;100.00;98820.97;4968878;28;47179;-69
2023/10/27 01:23:41;;;;;;;;;3.00;3.00;;;;;14.58;100.00;98814.88;4988033;28;45810;-68
2023/10/27 01:26:07;;;;;;;;;4.00;3.00;;;;;14.62;100.00;98821.53;4984890;28;45680;-70
2023/10/27 01:28:32;;;;;;;;;3.67;3.67;;;;;14.63;100.00;98831.47;4979771;28;45712;-69
2023/10/27 01:30:58;;;;;;;;;3.00;3.00;;;;;14.58;100.00;98824.00;4992853;28;45428;-69
2023/10/27 01:33:23;;;;;;;;;3.33;3.33;;;;;14.61;100.00;98831.75;4972346;28;45373;-67
2023/10/27 01:35:53;;;;;;;;;5.33;5.33;;;;;14.57;100.00;98827.06;4975859;28;45811;-68
2023/10/27 01:38:18;;;;;;;;;3.00;2.00;;;;;14.49;100.00;98811.91;4993297;28;45491;-70
2023/10/27 01:40:43;;;;;;;;;2.00;1.00;;;;;14.54;100.00;98827.63;4971415;28;48065;-69
2023/10/27 01:43:09;;;;;;;;;3.00;3.00;;;;;14.50;100.00;98827.34;4984628;28;45685;-68
2023/10/27 01:45:34;;;;;;;;;4.00;2.67;;;;;14.50;100.00;98830.09;4992085;28;45930;-69
2023/10/27 01:48:00;;;;;;;;;2.67;2.67;;;;;14.48;100.00;98827.63;4992420;28;46071;-69
2023/10/27 01:50:26;;;;;;;;;4.00;1.67;;;;;14.55;100.00;98841.13;4992353;28;46092;-69
2023/10/27 01:52:51;;;;;;;;;2.67;2.67;;;;;14.61;100.00;98837.28;4992757;28;45781;-68
2023/10/27 01:55:16;;;;;;;;;2.00;2.00;;;;;14.62;100.00;98838.91;4992716;28;45405;-70
2023/10/27 01:57:42;;;;;;;;;3.00;3.00;;;;;14.50;100.00;98832.84;4992772;28;46035;-71
2023/10/27 02:00:08;;;;;;;;;4.00;1.00;;;;;14.47;100.00;98830.66;4990685;28;46400;-70
2023/10/27 02:02:35;;;;;;;;;0.67;0.67;;;;;14.47;100.00;98844.44;4991912;28;45577;-69
2023/10/27 02:05:04;;;;;;;;;2.00;2.00;;;;;14.42;100.00;98839.78;4977741;28;45455;-68
2023/10/27 02:07:30;;;;;;;;;3.00;3.00;;;;;14.39;100.00;98847.81;4991339;28;46432;-69
2023/10/27 02:09:59;;;;;;;;;1.33;1.00;;;;;14.29;100.00;98843.94;4968512;28;46973;-69
2023/10/27 02:12:26;;;;;;;;;2.33;2.00;;;;;14.23;100.00;98842.31;4981383;28;46166;-71
2023/10/27 02:14:51;;;;;;;;;2.67;2.67;;;;;14.11;100.00;98828.03;4984835;28;45658;-68
2023/10/27 02:17:16;;;;;;;;;1.00;1.00;;;;;14.06;100.00;98841.84;4988180;28;45858;-69
2023/10/27 02:19:42;;;;;;;;;2.00;2.00;;;;;13.98;100.00;98845.13;4991651;28;46312;-68
2023/10/27 02:22:07;;;;;;;;;1.00;1.00;;;;;13.87;100.00;98847.91;4990695;28;45627;-69
2023/10/27 02:24:33;;;;;;;;;1.33;1.33;;;;;13.78;100.00;98838.56;4991362;28;45547;-69
2023/10/27 02:26:58;;;;;;;;;1.00;1.00;;;;;13.71;100.00;98843.50;4989565;28;46014;-69
2023/10/27 02:29:24;;;;;;;;;1.33;1.33;;;;;13.63;100.00;98844.91;4983474;28;46725;-68
2023/10/27 02:31:49;;;;;;;;;8.33;3.00;;;;;13.58;100.00;98859.50;4990558;28;46007;-69
2023/10/27 02:34:14;;;;;;;;;4.00;3.00;;;;;13.50;100.00;98846.31;4992221;28;45855;-69
2023/10/27 02:36:40;;;;;;;;;2.00;2.00;;;;;13.37;100.00;98833.06;4973767;28;45690;-69
2023/10/27 02:39:05;;;;;;;;;4.00;2.00;;;;;13.37;100.00;98852.34;4971482;28;48283;-69
2023/10/27 02:41:30;;;;;;;;;1.00;1.00;;;;;13.32;100.00;98852.28;4991838;28;45495;-69
2023/10/27 02:43:57;;;;;;;;;2.00;1.33;;;;;13.25;100.00;98839.63;4982704;28;45690;-68
2023/10/27 02:46:22;;;;;;;;;3.00;0.67;;;;;13.22;100.00;98850.38;4971983;28;45513;-69
2023/10/27 02:48:48;;;;;;;;;2.33;1.67;;;;;13.09;100.00;98835.19;4975914;28;46390;-69
2023/10/27 02:51:15;;;;;;;;;1.00;1.00;;;;;13.12;100.00;98856.66;4987698;28;45661;-71
2023/10/27 02:53:40;;;;;;;;;3.00;2.00;;;;;13.08;100.00;98855.56;4979636;28;45849;-69
2023/10/27 02:56:10;;;;;;;;;2.67;2.67;;;;;13.04;100.00;98848.97;4969859;28;45873;-69
2023/10/27 02:58:36;;;;;;;;;2.67;0.67;;;;;13.01;100.00;98847.56;4966344;28;46327;-69
2023/10/27 03:01:14;;;;;;;;;2.00;1.00;;;;;12.94;100.00;98843.44;4987067;28;45894;-70
2023/10/27 03:03:39;;;;;;;;;3.00;3.00;;;;;12.93;100.00;98855.53;4982351;28;45682;-70
2023/10/27 03:06:05;;;;;;;;;0.00;0.00;;;;;12.83;100.00;98854.41;4973813;28;45799;-69
2023/10/27 03:08:32;;;;;;;;;0.33;0.33;;;;;12.86;100.00;98856.63;4972907;28;47275;-67
2023/10/27 03:10:57;;;;;;;;;1.67;0.33;;;;;12.81;100.00;98862.09;4991629;28;45419;-68
2023/10/27 03:13:22;;;;;;;;;5.33;2.67;;;;;12.81;100.00;98864.84;4971463;28;45653;-68
2023/10/27 03:15:48;;;;;;;;;2.67;1.67;;;;;12.75;100.00;98868.66;4985299;28;45797;-69
2023/10/27 03:18:13;;;;;;;;;2.67;2.67;;;;;12.73;100.00;98865.38;4991213;28;45865;-74
2023/10/27 03:20:38;;;;;;;;;6.67;3.00;;;;;12.76;100.00;98861.25;4991409;28;45553;-72
2023/10/27 03:23:04;;;;;;;;;1.67;1.67;;;;;12.78;100.00;98870.88;4991820;28;45534;-71
2023/10/27 03:25:29;;;;;;;;;1.67;1.67;;;;;12.73;100.00;98873.63;4981568;28;45449;-73
2023/10/27 03:27:55;;;;;;;;;3.67;0.67;;;;;12.69;100.00;98865.09;4970222;28;47008;-74
2023/10/27 03:30:21;;;;;;;;;3.33;2.33;;;;;12.70;100.00;98872.22;4991150;28;45922;-73
2023/10/27 03:32:47;;;;;;;;;2.33;1.00;;;;;12.73;100.00;98875.56;4973696;28;45325;-74
2023/10/27 03:35:12;;;;;;;;;3.00;2.00;;;;;12.66;100.00;98876.59;4974024;28;45834;-73
2023/10/27 03:37:38;;;;;;;;;3.00;3.00;;;;;12.69;100.00;98872.50;4972216;28;46372;-73
2023/10/27 03:40:04;;;;;;;;;3.67;2.00;;;;;12.71;100.00;98879.41;5006625;28;45676;-73
2023/10/27 03:42:29;;;;;;;;;1.67;1.67;;;;;12.73;100.00;98870.06;5011253;28;45776;-73
2023/10/27 03:44:55;;;;;;;;;4.67;1.67;;;;;12.91;100.00;98885.25;4989714;28;45376;-72
2023/10/27 03:47:20;;;;;;;;;1.67;1.67;;;;;13.06;100.00;98877.84;4999370;28;45851;-73
2023/10/27 03:49:46;;;;;;;;;1.33;0.67;;;;;13.09;100.00;98882.00;4992375;28;45756;-73
2023/10/27 03:52:11;;;;;;;;;3.00;2.00;;;;;13.17;100.00;98873.22;5010408;28;45636;-69
2023/10/27 03:54:36;;;;;;;;;4.00;2.67;;;;;13.23;100.00;98869.38;5009883;28;45674;-69
2023/10/27 03:57:03;;;;;;;;;1.67;1.67;;;;;13.25;100.00;98872.66;5010453;28;46474;-69
2023/10/27 03:59:28;;;;;;;;;2.33;2.33;;;;;13.37;100.00;98877.13;5010392;28;45466;-69
2023/10/27 04:01:54;;;;;;;;;2.00;2.00;;;;;13.42;100.00;98866.09;4992964;28;45481;-69
2023/10/27 04:04:19;;;;;;;;;3.00;2.67;;;;;13.51;100.00;98874.66;5012532;28;46296;-69
2023/10/27 04:06:45;;;;;;;;;3.33;2.00;;;;;13.56;100.00;98867.22;5008843;28;45567;-69
2023/10/27 04:09:11;;;;;;;;;4.67;3.33;;;;;13.61;100.00;98874.66;5009811;28;45689;-70
2023/10/27 04:11:36;;;;;;;;;2.33;2.00;;;;;13.84;100.00;98867.75;4984959;28;45795;-70
2023/10/27 04:14:04;;;;;;;;;3.00;1.33;;;;;13.90;100.00;98871.34;5015539;28;45853;-69
2023/10/27 04:16:29;;;;;;;;;3.33;2.00;;;;;13.95;100.00;98876.81;5009059;28;46141;-69
2023/10/27 04:18:55;;;;;;;;;9.00;4.00;;;;;13.97;100.00;98873.78;5010287;28;45780;-69
2023/10/27 04:21:21;;;;;;;;;6.33;3.67;;;;;13.89;100.00;98878.78;5002195;28;45585;-68
2023/10/27 04:23:47;;;;;;;;;4.00;2.00;;;;;13.87;100.00;98888.44;5010584;28;45894;-69
2023/10/27 04:26:13;;;;;;;;;5.33;4.00;;;;;13.61;100.00;98874.66;4992553;28;47665;-69
2023/10/27 04:28:38;;;;;;;;;2.33;2.33;;;;;13.61;100.00;98885.69;4984396;28;45925;-69
2023/10/27 04:31:04;;;;;;;;;2.33;2.33;;;;;13.50;100.00;98876.59;5010651;28;46031;-69
2023/10/27 04:33:30;;;;;;;;;3.00;3.00;;;;;13.59;100.00;98894.22;4991966;28;46703;-69
2023/10/27 04:35:55;;;;;;;;;4.67;3.33;;;;;13.57;100.00;98892.81;4989426;28;45568;-70
2023/10/27 04:38:21;;;;;;;;;3.33;3.33;;;;;13.54;100.00;98891.44;4994062;28;45654;-69
2023/10/27 04:40:48;;;;;;;;;4.00;2.33;;;;;13.46;100.00;98881.00;4994884;28;45939;-70
2023/10/27 04:43:14;;;;;;;;;7.67;3.00;;;;;13.51;100.00;98886.47;4993502;28;45520;-70
2023/10/27 04:45:39;;;;;;;;;4.67;3.67;;;;;13.62;100.00;98898.31;4993330;28;45844;-69
2023/10/27 04:48:05;;;;;;;;;3.67;2.67;;;;;13.66;100.00;98904.94;4993441;28;45359;-68
2023/10/27 04:50:33;;;;;;;;;4.00;3.00;;;;;13.72;100.00;98903.84;4993781;28;45498;-70
2023/10/27 04:52:59;;;;;;;;;4.67;3.00;;;;;13.71;100.00;98890.34;4993428;28;45554;-70
2023/10/27 04:55:25;;;;;;;;;5.33;3.67;;;;;13.62;100.00;98869.97;4993279;28;45468;-70
2023/10/27 04:57:50;;;;;;;;;6.33;3.00;;;;;13.72;100.00;98903.03;4989605;28;45416;-70
2023/10/27 05:00:16;;;;;;;;;3.33;2.00;;;;;13.72;100.00;98898.34;4976088;28;45893;-71
2023/10/27 05:02:41;;;;;;;;;3.67;2.67;;;;;13.72;100.00;98901.09;4975943;28;47115;-70
2023/10/27 05:05:08;;;;;;;;;5.00;2.00;;;;;13.71;100.00;98904.13;4972684;28;46933;-69
2023/10/27 05:07:33;;;;;;;;;5.67;3.00;;;;;13.60;100.00;98895.03;4992989;28;45378;-69
2023/10/27 05:09:59;;;;;;;;;4.00;2.67;;;;;13.65;100.00;98888.69;4975520;28;45794;-69
2023/10/27 05:12:24;;;;;;;;;3.67;2.33;;;;;13.71;100.00;98902.22;4994019;28;45750;-70
2023/10/27 05:14:50;;;;;;;;;4.00;3.00;;;;;13.69;100.00;98909.09;4992922;28;45749;-69
2023/10/27 05:17:17;;;;;;;;;2.00;2.00;;;;;13.64;100.00;98909.06;4989196;28;46194;-67
2023/10/27 05:19:42;;;;;;;;;4.00;2.00;;;;;13.46;100.00;98893.91;4987527;28;45752;-70
2023/10/27 05:22:08;;;;;;;;;1.67;1.67;;;;;13.54;100.00;98916.22;4991539;28;45732;-72
2023/10/27 05:24:34;;;;;;;;;3.33;2.00;;;;;13.48;100.00;98913.75;4962543;28;47460;-71
2023/10/27 05:27:00;;;;;;;;;4.00;3.00;;;;;13.46;100.00;98916.78;4978587;28;45663;-71
2023/10/27 05:29:26;;;;;;;;;3.00;1.67;;;;;13.40;100.00;98906.88;4988106;28;45679;-71
2023/10/27 05:31:51;;;;;;;;;2.00;2.00;;;;;13.49;100.00;98907.97;4984005;28;45442;-74
2023/10/27 05:34:17;;;;;;;;;3.67;1.33;;;;;13.44;100.00;98896.94;4985307;28;45382;-69
2023/10/27 05:36:43;;;;;;;;;8.00;2.00;;;;;13.52;100.00;98910.19;4964698;28;45568;-71
2023/10/27 05:39:08;;;;;;;;;3.00;2.00;;;;;13.52;100.00;98917.63;4970742;28;45987;-69
2023/10/27 05:41:34;;;;;;;;;5.33;4.00;;;;;13.51;100.00;98908.50;4978304;28;45619;-75
2023/10/27 05:43:59;;;;;;;;;4.00;2.33;;;;;13.59;100.00;98916.25;4985793;28;46372;-73
2023/10/27 05:46:25;;;;;;;;;2.00;2.00;;;;;13.69;100.00;98907.16;4985167;28;45780;-70
2023/10/27 05:48:50;;;;;;;;;1.67;1.00;;;;;13.71;100.00;98907.72;4986514;28;45491;-72
2023/10/27 05:51:16;;;;;;;;;3.33;2.00;;;;;13.78;100.00;98908.25;4989770;28;46048;-73
2023/10/27 05:53:41;;;;;;;;;2.00;2.00;;;;;13.78;100.00;98907.44;4977301;28;46035;-78
2023/10/27 05:56:07;;;;;;;;;5.33;3.00;;;;;13.91;100.00;98901.38;4974015;28;45440;-78
2023/10/27 05:58:35;;;;;;;;;6.00;2.33;;;;;13.78;100.00;98893.66;4977020;28;45779;-79
2023/10/27 06:01:00;;;;;;;;;4.00;1.67;;;;;13.87;100.00;98904.97;4994621;28;46107;-76
2023/10/27 06:03:26;;;;;;;;;3.00;1.00;;;;;13.90;100.00;98898.91;4999565;28;45608;-78
2023/10/27 06:05:54;;;;;;;;;2.00;1.33;;;;;13.92;100.00;98900.28;4972846;28;45703;-79
2023/10/27 06:08:19;;;;;;;;;2.00;2.00;;;;;13.92;100.00;98911.31;4978349;28;46389;-78
2023/10/27 06:10:45;;;;;;;;;5.33;2.00;;;;;13.94;100.00;98900.81;4985820;28;45851;-78
2023/10/27 06:13:12;;;;;;;;;1.00;1.00;;;;;13.97;100.00;98907.72;4977015;28;47225;-76
2023/10/27 06:15:38;;;;;;;;;4.00;1.00;;;;;13.97;100.00;98906.88;4992270;28;45514;-74
2023/10/27 06:18:03;;;;;;;;;3.33;3.00;;;;;13.95;100.00;98908.00;4967265;28;46062;-74
2023/10/27 06:20:29;;;;;;;;;5.00;2.00;;;;;13.91;100.00;98900.56;4985156;28;46075;-73
2023/10/27 06:22:55;;;;;;;;;1.33;1.00;;;;;13.93;100.00;98910.19;4985564;28;45748;-75
2023/10/27 06:25:21;;;;;;;;;4.33;1.00;;;;;13.98;100.00;98919.56;4988007;28;45729;-72
2023/10/27 06:27:47;;;;;;;;;5.00;2.00;;;;;14.02;100.00;98920.66;4970910;28;45404;-77
2023/10/27 06:30:12;;;;;;;;;1.33;1.00;;;;;13.98;100.00;98922.31;4989378;28;45447;-73
2023/10/27 06:32:38;;;;;;;;;3.00;2.00;;;;;13.92;100.00;98922.31;4984747;28;46455;-75
2023/10/27 06:35:03;;;;;;;;;3.67;0.33;;;;;13.97;100.00;98926.16;4989221;28;45860;-73
2023/10/27 06:37:29;;;;;;;;;2.33;1.00;;;;;13.93;100.00;98920.38;4994203;28;45438;-71
2023/10/27 06:39:58;;;;;;;;;3.33;1.33;;;;;14.05;100.00;98929.19;4982991;28;45812;-72
2023/10/27 06:42:25;;;;;;;;;5.00;2.00;;;;;14.09;100.00;98926.72;5000771;28;45815;-73
2023/10/27 06:44:51;;;;;;;;;1.67;1.00;;;;;14.08;100.00;98927.81;4971679;28;45508;-74
2023/10/27 06:47:18;;;;;;;;;4.00;2.67;;;;;14.21;100.00;98923.69;4972193;28;45817;-75
2023/10/27 06:49:44;;;;;;;;;2.33;1.00;;;;;14.21;100.00;98938.28;4989171;28;45738;-74
2023/10/27 06:52:10;;;;;;;;;3.67;1.00;;;;;14.25;100.00;98933.03;4973066;28;48456;-74
2023/10/27 06:54:35;;;;;;;;;2.00;2.00;;;;;14.21;100.00;98932.78;4986107;28;45505;-75
2023/10/27 06:57:00;;;;;;;;;1.67;1.67;;;;;14.28;100.00;98941.59;4984677;28;45598;-74
2023/10/27 06:59:28;;;;;;;;;3.67;3.00;;;;;14.33;100.00;98942.69;4984807;28;45741;-76
2023/10/27 07:01:54;;;;;;;;;1.33;1.33;;;;;14.37;100.00;98936.34;4963284;28;47476;-76
2023/10/27 07:04:20;;;;;;;;;1.33;1.00;;;;;14.33;100.00;98924.22;4962713;28;45751;-76
2023/10/27 07:06:45;;;;;;;;;2.00;1.00;;;;;14.40;100.00;98930.25;4979578;28;45564;-76
2023/10/27 07:09:11;;;;;;;;;4.00;4.00;;;;;14.47;100.00;98939.06;4979340;28;45614;-74
2023/10/27 07:11:38;;;;;;;;;3.33;2.33;;;;;14.59;100.00;98949.78;4971417;28;45482;-75
2023/10/27 07:14:04;;;;;;;;;3.00;1.67;;;;;14.53;100.00;98950.09;4972549;28;45793;-74
2023/10/27 07:16:29;;;;;;;;;4.00;3.00;;;;;14.67;100.00;98955.88;4988510;28;45661;-74
2023/10/27 07:18:55;;;;;;;;;3.00;1.00;;;;;14.68;100.00;98960.28;4971227;28;46009;-74
2023/10/27 07:21:21;;;;;;;;;4.33;2.33;;;;;14.71;100.00;98959.72;4983842;28;46292;-75
2023/10/27 07:23:46;;;;;;;;;1.67;1.67;;;;;14.75;100.00;98958.06;4985773;28;45614;-74
2023/10/27 07:26:15;;;;;;;;;4.33;2.00;;;;;14.65;100.00;98942.34;4980368;28;45905;-74
2023/10/27 07:28:41;;;;;;;;;3.33;2.00;;;;;14.80;100.00;98977.34;4979787;28;45722;-75
2023/10/27 07:31:08;;;;;;;;;4.33;2.00;;;;;14.87;100.00;98977.06;4961580;28;47344;-75
2023/10/27 07:33:34;;;;;;;;;6.00;3.00;;;;;14.95;100.00;98979.25;4971661;28;45731;-77
2023/10/27 07:36:02;;;;;;;;;1.67;1.67;;;;;14.98;100.00;98984.19;4983009;28;45305;-75
2023/10/27 07:38:27;;;;;;;;;2.67;1.00;;;;;14.91;100.00;98994.72;4966037;28;45878;-71
2023/10/27 07:40:57;;;;;;;;;4.00;3.33;;;;;14.94;100.00;98983.94;4972215;28;46201;-74
2023/10/27 07:43:22;;;;;;;;;3.00;2.00;;;;;15.05;100.00;98994.97;4990973;28;45262;-71
2023/10/27 07:45:48;;;;;;;;;1.00;1.00;;;;;15.17;100.00;99007.31;4982548;28;45477;-74
2023/10/27 07:48:14;;;;;;;;;2.67;2.33;;;;;15.25;100.00;99003.13;4988222;28;45447;-75
2023/10/27 07:50:40;;;;;;;;;3.00;2.67;;;;;15.36;100.00;99002.00;4982050;28;46260;-74
2023/10/27 07:53:05;;;;;;;;;5.67;3.00;;;;;15.56;100.00;99016.81;4974846;28;45429;-73
2023/10/27 07:55:31;;;;;;;;;7.33;5.00;;;;;15.74;100.00;99011.75;4990848;28;45694;-74
2023/10/27 07:57:56;;;;;;;;;5.33;3.00;;;;;15.88;100.00;99016.38;4989238;28;45722;-74
2023/10/27 08:00:22;;;;;;;;;6.00;3.00;;;;;16.00;100.00;99027.09;4991027;28;46271;-73
2023/10/27 08:02:48;;;;;;;;;1.33;1.33;;;;;16.03;100.00;99023.75;4973009;28;45670;-74
2023/10/27 08:05:13;;;;;;;;;3.00;2.00;;;;;16.11;100.00;99025.06;4973248;28;45814;-75
2023/10/27 08:07:38;;;;;;;;;2.33;1.00;;;;;16.20;100.00;99036.34;4988356;28;45502;-74
2023/10/27 08:10:07;;;;;;;;;3.00;1.00;;;;;16.33;100.00;99035.69;4989406;28;46766;-74
2023/10/27 08:12:34;;;;;;;;;3.00;2.00;;;;;16.42;100.00;99031.19;4984842;28;45611;-74
2023/10/27 08:15:04;;;;;;;;;1.67;1.67;;;;;16.57;100.00;99034.91;4994857;28;45725;-73
2023/10/27 08:17:31;;;;;;;;;1.00;1.00;;;;;16.67;100.00;99029.28;4989799;28;45520;-74
2023/10/27 08:19:56;;;;;;;;;3.00;2.00;;;;;16.66;100.00;99027.66;4985002;28;46659;-74
2023/10/27 08:22:22;;;;;;;;;3.67;3.00;;;;;16.60;100.00;99026.00;4983311;28;45574;-74
2023/10/27 08:24:47;;;;;;;;;1.33;1.00;;;;;16.61;100.00;99029.63;4970564;28;45793;-73
2023/10/27 08:27:13;;;;;;;;;2.33;1.67;;;;;16.59;100.00;99016.09;4991830;28;45841;-74
2023/10/27 08:29:38;;;;;;;;;4.67;2.00;;;;;16.53;100.00;98989.56;4967303;28;46612;-74
2023/10/27 08:32:04;;;;;;;;;3.00;3.00;;;;;16.59;100.00;99010.56;4988341;28;45578;-75
2023/10/27 08:34:29;;;;;;;;;2.00;1.00;;;;;16.59;100.00;98991.19;4977017;28;45350;-72
2023/10/27 08:36:54;;;;;;;;;4.00;2.33;;;;;16.64;100.00;98995.84;4982562;28;45800;-74
2023/10/27 08:39:20;;;;;;;;;5.00;3.00;;;;;16.67;100.00;99009.91;4973239;28;47784;-76
2023/10/27 08:41:46;;;;;;;;;3.33;1.33;;;;;16.62;100.00;99003.59;4977996;28;45904;-74
2023/10/27 08:44:14;;;;;;;;;3.33;2.00;;;;;16.75;100.00;99006.50;5002823;28;45510;-78
2023/10/27 08:46:40;;;;;;;;;2.33;1.00;;;;;16.83;100.00;99021.66;4991188;28;45907;-73
2023/10/27 08:49:08;;;;;;;;;1.00;1.00;;;;;17.01;100.00;99019.28;4986135;28;45677;-75
2023/10/27 08:51:35;;;;;;;;;3.33;1.67;;;;;17.32;100.00;99022.53;4986060;28;45395;-74
2023/10/27 08:54:01;;;;;;;;;2.00;2.00;;;;;17.81;100.00;99026.00;4997526;28;45694;-74
2023/10/27 08:56:29;;;;;;;;;4.75;1.00;;;;;18.81;100.00;99017.44;4990354;28;45775;-76
2023/10/27 08:58:54;;;;;;;;;2.00;2.00;;;;;19.39;100.00;99010.50;5002824;28;45808;-76
2023/10/27 09:01:19;;;;;;;;;2.33;1.33;;;;;20.22;100.00;99009.47;4993141;28;45474;-78
2023/10/27 09:04:11;;;;;;;;;2.00;2.00;;;;;20.82;100.00;99021.34;4994063;28;45533;-72
2023/10/27 09:06:38;;;;;;;;;2.75;1.00;;;;;21.62;100.00;99028.91;4977707;28;45888;-77
2023/10/27 09:09:06;;;;;;;;;7.00;4.00;;;;;21.75;100.00;99041.91;4989751;28;46231;-76
2023/10/27 09:11:47;;;;;;;;;1.00;1.00;;;;;21.49;100.00;99048.19;4981397;28;45638;-76
2023/10/27 09:14:19;;;;;;;;;6.50;2.00;;;;;21.78;100.00;99073.91;4994383;28;45611;-75
2023/10/27 09:16:44;;;;;;;;;1.25;1.25;;;;;21.95;100.00;99048.81;4995551;28;45488;-76
2023/10/27 09:19:26;;;;;;;;;0.25;0.25;;;;;22.36;100.00;99066.28;4975067;28;47130;-70
2023/10/27 09:21:53;;;;;;;;;1.00;1.00;;;;;22.71;100.00;99061.47;4996037;28;45467;-71
2023/10/27 09:24:23;;;;;;;;;1.75;1.00;;;;;23.57;100.00;99061.50;4986896;28;45423;-71
2023/10/27 09:26:49;;;;;;;;;0.75;0.75;;;;;24.33;100.00;99051.28;4988001;28;46063;-71
2023/10/27 09:29:15;;;;;;;;;1.75;1.75;;;;;24.52;100.00;99041.56;4995868;28;45420;-72
2023/10/27 09:31:42;;;;;;;;;3.75;1.25;;;;;25.10;100.00;99044.44;4974934;28;45900;-72
2023/10/27 09:34:26;;;;;;;;;1.75;0.75;;;;;25.47;100.00;99040.88;4981852;28;45476;-73
2023/10/27 09:36:57;;;;;;;;;4.00;1.00;;;;;26.03;100.00;99049.50;4982003;28;45691;-71
2023/10/27 09:39:23;;;;;;;;;2.25;1.00;;;;;26.51;100.00;99052.50;5001894;28;45510;-72
2023/10/27 09:42:05;;;;;;;;;1.00;1.00;;;;;26.81;100.00;99038.06;4988909;28;45643;-71
2023/10/27 09:44:35;;;;;;;;;1.25;0.75;;;;;27.29;100.00;99053.03;5016561;28;45431;-73
2023/10/27 09:47:05;;;;;;;;;2.25;1.00;;;;;27.36;100.00;99048.78;4983451;28;45994;-73
2023/10/27 09:49:38;;;;;;;;;0.00;0.00;;;;;27.55;100.00;99048.84;5008718;28;46334;-73
2023/10/27 09:52:11;;;;;;;;;2.00;0.00;;;;;27.72;100.00;99046.81;4996979;28;45829;-72
2023/10/27 09:54:38;;;;;;;;;2.50;1.00;;;;;28.00;100.00;99047.50;5001448;28;45675;-72
2023/10/27 09:57:05;;;;;;;;;1.75;1.75;;;;;28.34;100.00;99053.47;5008783;28;45353;-73
2023/10/27 09:59:31;;;;;;;;;0.00;0.00;;;;;28.30;93.76;99049.75;5004221;28;46222;-72
2023/10/27 10:02:05;;;;;;;;;1.40;0.40;;;;;27.79;93.35;99016.81;5005140;28;45819;-73
2023/10/27 10:04:51;;;;;;;;;1.25;0.00;;;;;27.78;96.04;99042.53;5000835;28;45638;-77
2023/10/27 10:07:40;;;;;;;;;0.75;0.25;;;;;27.44;94.23;99047.75;5007854;28;46012;-78
2023/10/27 10:10:26;;;;;;;;;2.00;1.00;;;;;27.10;96.10;99064.19;5014815;28;45803;-79
2023/10/27 10:13:03;;;;;;;;;2.40;1.00;;;;;26.43;96.82;99059.91;5010676;28;45792;-77
2023/10/27 10:15:33;;;;;;;;;1.00;1.00;;;;;25.92;98.01;99067.97;5008761;28;45602;-74
2023/10/27 10:18:00;;;;;;;;;18.00;12.00;;;;;25.41;100.00;99065.53;5023419;28;45755;-72
2023/10/27 10:20:44;;;;;;;;;2.25;1.00;;;;;24.80;100.00;99069.81;4994445;28;45755;-73
2023/10/27 10:23:10;;;;;;;;;32.67;23.00;;;;;24.11;100.00;99069.25;5011671;28;45514;-72
2023/10/27 10:25:36;;;;;;;;;4.50;4.50;;;;;23.58;100.00;99057.56;5001500;28;45436;-72
2023/10/27 10:28:07;;;;;;;;;7.75;6.50;;;;;23.32;100.00;99074.47;5004345;28;45905;-81
2023/10/27 10:30:37;;;;;;;;;3.75;3.75;;;;;22.95;100.00;99062.91;4996167;28;46165;-77
2023/10/27 10:33:17;;;;;;;;;3.00;2.00;;;;;22.79;100.00;99059.81;5006929;28;45490;-78
2023/10/27 10:35:50;;;;;;;;;1.75;1.00;;;;;23.07;100.00;99063.03;5007225;28;45668;-81
2023/10/27 10:38:21;;;;;;;;;2.50;1.50;;;;;23.04;100.00;99063.69;5005485;28;45913;-80
2023/10/27 10:40:54;;;;;;;;;0.75;0.75;;;;;23.13;100.00;99065.66;5008312;28;45760;-79
2023/10/27 10:43:20;;;;;;;;;2.25;1.00;;;;;23.30;100.00;99057.19;4997111;28;45521;-80
2023/10/27 10:45:50;;;;;;;;;2.00;1.25;;;;;23.16;100.00;99034.22;4995416;28;45656;-80
2023/10/27 10:48:16;;;;;;;;;1.00;0.25;;;;;23.03;100.00;99056.44;4975804;28;46752;-80
2023/10/27 10:50:42;;;;;;;;;2.25;2.25;;;;;22.90;100.00;99055.50;5003000;28;46074;-78
2023/10/27 10:53:16;;;;;;;;;0.25;0.25;;;;;23.01;100.00;99053.19;4992462;28;45897;-78
2023/10/27 10:55:45;;;;;;;;;4.00;3.00;;;;;22.92;100.00;99050.41;4981413;28;45617;-78
2023/10/27 10:58:18;;;;;;;;;1.75;1.50;;;;;22.69;100.00;99047.00;4992914;28;45819;-76
2023/10/27 11:00:44;;;;;;;;;4.75;1.00;;;;;22.55;100.00;99047.19;4995432;28;47070;-79
2023/10/27 11:03:10;;;;;;;;;3.00;2.00;;;;;22.39;100.00;99051.63;4991467;28;45853;-81
2023/10/27 11:05:36;;;;;;;;;3.00;1.50;;;;;22.29;100.00;99038.81;4995900;28;45496;-79
2023/10/27 11:08:03;;;;;;;;;3.50;2.25;;;;;22.21;100.00;99046.03;5000490;28;45665;-77
2023/10/27 11:10:29;;;;;;;;;2.50;2.25;;;;;22.23;100.00;99045.72;5006337;28;46353;-80
2023/10/27 11:12:54;;;;;;;;;2.00;0.50;;;;;22.17;100.00;99047.84;5004802;28;45422;-78
2023/10/27 11:15:39;;;;;;;;;4.00;1.00;;;;;22.04;100.00;99051.63;5002353;28;45713;-78
2023/10/27 11:18:10;;;;;;;;;3.00;2.00;;;;;21.97;100.00;99049.31;5003762;28;46860;-79
2023/10/27 11:20:37;;;;;;;;;3.75;1.00;;;;;21.96;100.00;99053.25;5014156;28;45245;-76
2023/10/27 11:23:10;;;;;;;;;1.25;0.25;;;;;21.93;100.00;99022.38;4987880;28;45936;-77